sensor_id;sensor_type;location;lat;lon;timestamp;temperature;humidity
46754;DHT22;32500;50.620;3.400;2023-12-22T00:01:08;18.10;63.40
46754;DHT22;32500;50.620;3.400;2023-12-22T00:03:34;18.10;63.30
46754;DHT22;32500;50.620;3.400;2023-12-22T00:05:59;18.10;63.60
46754;DHT22;32500;50.620;3.400;2023-12-22T00:08:25;18.00;63.60
46754;DHT22;32500;50.620;3.400;2023-12-22T00:10:51;18.00;63.60
46754;DHT22;32500;50.620;3.400;2023-12-22T00:13:16;18.00;63.50
46754;DHT22;32500;50.620;3.400;2023-12-22T00:15:42;17.90;63.50
46754;DHT22;32500;50.620;3.400;2023-12-22T00:18:08;17.90;63.80
46754;DHT22;32500;50.620;3.400;2023-12-22T00:20:34;17.90;63.90
46754;DHT22;32500;50.620;3.400;2023-12-22T00:23:00;17.90;63.60
46754;DHT22;32500;50.620;3.400;2023-12-22T00:25:26;17.90;64.10
46754;DHT22;32500;50.620;3.400;2023-12-22T00:27:52;17.90;63.60
46754;DHT22;32500;50.620;3.400;2023-12-22T00:30:17;17.80;63.60
46754;DHT22;32500;50.620;3.400;2023-12-22T00:32:43;17.80;63.90
46754;DHT22;32500;50.620;3.400;2023-12-22T00:35:09;17.80;63.90
46754;DHT22;32500;50.620;3.400;2023-12-22T00:37:34;17.80;64.20
46754;DHT22;32500;50.620;3.400;2023-12-22T00:40:01;17.80;64.20
46754;DHT22;32500;50.620;3.400;2023-12-22T00:42:27;17.70;64.10
46754;DHT22;32500;50.620;3.400;2023-12-22T00:44:53;17.80;64.30
46754;DHT22;32500;50.620;3.400;2023-12-22T00:47:19;17.70;64.20
46754;DHT22;32500;50.620;3.400;2023-12-22T00:49:44;17.70;64.10
46754;DHT22;32500;50.620;3.400;2023-12-22T00:52:10;17.70;64.00
46754;DHT22;32500;50.620;3.400;2023-12-22T00:54:36;17.60;64.30
46754;DHT22;32500;50.620;3.400;2023-12-22T00:57:01;17.60;64.10
46754;DHT22;32500;50.620;3.400;2023-12-22T00:59:27;17.60;64.00
46754;DHT22;32500;50.620;3.400;2023-12-22T01:01:52;17.60;64.30
46754;DHT22;32500;50.620;3.400;2023-12-22T01:04:18;17.60;64.30
46754;DHT22;32500;50.620;3.400;2023-12-22T01:06:44;17.60;64.30
46754;DHT22;32500;50.620;3.400;2023-12-22T01:09:10;17.60;64.20
46754;DHT22;32500;50.620;3.400;2023-12-22T01:11:35;17.50;64.40
46754;DHT22;32500;50.620;3.400;2023-12-22T01:14:01;17.50;64.40
46754;DHT22;32500;50.620;3.400;2023-12-22T01:16:27;17.50;64.50
46754;DHT22;32500;50.620;3.400;2023-12-22T01:18:53;17.50;64.40
46754;DHT22;32500;50.620;3.400;2023-12-22T01:21:18;17.50;64.50
46754;DHT22;32500;50.620;3.400;2023-12-22T01:23:44;17.60;64.60
46754;DHT22;32500;50.620;3.400;2023-12-22T01:26:10;17.50;64.40
46754;DHT22;32500;50.620;3.400;2023-12-22T01:28:35;17.50;64.50
46754;DHT22;32500;50.620;3.400;2023-12-22T01:31:02;17.40;64.30
46754;DHT22;32500;50.620;3.400;2023-12-22T01:33:27;17.40;64.40
46754;DHT22;32500;50.620;3.400;2023-12-22T01:35:54;17.40;64.50
46754;DHT22;32500;50.620;3.400;2023-12-22T01:38:20;17.40;64.40
46754;DHT22;32500;50.620;3.400;2023-12-22T01:40:46;17.40;64.50
46754;DHT22;32500;50.620;3.400;2023-12-22T01:43:12;17.40;64.20
46754;DHT22;32500;50.620;3.400;2023-12-22T01:45:38;17.30;64.30
46754;DHT22;32500;50.620;3.400;2023-12-22T01:48:04;17.30;64.40
46754;DHT22;32500;50.620;3.400;2023-12-22T01:50:30;17.30;64.40
46754;DHT22;32500;50.620;3.400;2023-12-22T01:52:56;17.30;64.50
46754;DHT22;32500;50.620;3.400;2023-12-22T01:55:22;17.30;64.70
46754;DHT22;32500;50.620;3.400;2023-12-22T01:57:49;17.30;64.70
46754;DHT22;32500;50.620;3.400;2023-12-22T02:00:14;17.30;64.60
46754;DHT22;32500;50.620;3.400;2023-12-22T02:02:41;17.30;64.60
46754;DHT22;32500;50.620;3.400;2023-12-22T02:05:10;17.30;64.50
46754;DHT22;32500;50.620;3.400;2023-12-22T02:07:40;17.20;64.60
46754;DHT22;32500;50.620;3.400;2023-12-22T02:10:10;17.20;64.50
46754;DHT22;32500;50.620;3.400;2023-12-22T02:12:38;17.20;64.50
46754;DHT22;32500;50.620;3.400;2023-12-22T02:15:05;17.20;64.30
46754;DHT22;32500;50.620;3.400;2023-12-22T02:17:43;17.20;64.70
46754;DHT22;32500;50.620;3.400;2023-12-22T02:20:11;17.10;64.60
46754;DHT22;32500;50.620;3.400;2023-12-22T02:22:37;17.10;64.40
46754;DHT22;32500;50.620;3.400;2023-12-22T02:25:02;17.10;64.60
46754;DHT22;32500;50.620;3.400;2023-12-22T02:27:44;17.10;64.50
46754;DHT22;32500;50.620;3.400;2023-12-22T02:32:59;17.10;64.70
46754;DHT22;32500;50.620;3.400;2023-12-22T02:35:28;17.00;64.80
46754;DHT22;32500;50.620;3.400;2023-12-22T02:37:56;17.00;64.60
46754;DHT22;32500;50.620;3.400;2023-12-22T02:40:23;17.10;64.60
46754;DHT22;32500;50.620;3.400;2023-12-22T02:42:52;17.00;64.80
46754;DHT22;32500;50.620;3.400;2023-12-22T02:45:18;17.00;64.60
46754;DHT22;32500;50.620;3.400;2023-12-22T02:47:45;17.00;64.50
46754;DHT22;32500;50.620;3.400;2023-12-22T02:50:12;17.00;64.30
46754;DHT22;32500;50.620;3.400;2023-12-22T02:52:38;17.00;64.50
46754;DHT22;32500;50.620;3.400;2023-12-22T02:55:04;17.00;64.50
46754;DHT22;32500;50.620;3.400;2023-12-22T02:57:30;17.00;64.40
46754;DHT22;32500;50.620;3.400;2023-12-22T02:59:56;17.00;64.50
46754;DHT22;32500;50.620;3.400;2023-12-22T03:02:22;17.00;64.60
46754;DHT22;32500;50.620;3.400;2023-12-22T03:04:48;17.00;64.40
46754;DHT22;32500;50.620;3.400;2023-12-22T03:07:14;16.90;64.00
46754;DHT22;32500;50.620;3.400;2023-12-22T03:09:40;16.90;65.00
46754;DHT22;32500;50.620;3.400;2023-12-22T03:12:07;16.90;64.30
46754;DHT22;32500;50.620;3.400;2023-12-22T03:14:33;16.90;64.50
46754;DHT22;32500;50.620;3.400;2023-12-22T03:17:00;16.90;64.60
46754;DHT22;32500;50.620;3.400;2023-12-22T03:19:26;16.90;64.40
46754;DHT22;32500;50.620;3.400;2023-12-22T03:21:52;16.90;64.20
46754;DHT22;32500;50.620;3.400;2023-12-22T03:24:17;16.80;64.20
46754;DHT22;32500;50.620;3.400;2023-12-22T03:26:48;16.80;64.10
46754;DHT22;32500;50.620;3.400;2023-12-22T03:29:14;16.90;64.20
46754;DHT22;32500;50.620;3.400;2023-12-22T03:31:40;16.80;64.00
46754;DHT22;32500;50.620;3.400;2023-12-22T03:34:06;16.80;64.10
46754;DHT22;32500;50.620;3.400;2023-12-22T03:36:31;16.80;63.80
46754;DHT22;32500;50.620;3.400;2023-12-22T03:38:57;16.80;64.00
46754;DHT22;32500;50.620;3.400;2023-12-22T03:41:23;16.80;64.20
46754;DHT22;32500;50.620;3.400;2023-12-22T03:43:49;16.80;64.20
46754;DHT22;32500;50.620;3.400;2023-12-22T03:46:14;16.80;64.00
46754;DHT22;32500;50.620;3.400;2023-12-22T03:48:40;16.80;64.10
46754;DHT22;32500;50.620;3.400;2023-12-22T03:51:06;16.80;63.80
46754;DHT22;32500;50.620;3.400;2023-12-22T03:53:31;16.80;64.00
46754;DHT22;32500;50.620;3.400;2023-12-22T03:55:57;16.80;64.00
46754;DHT22;32500;50.620;3.400;2023-12-22T03:58:23;16.80;64.00
46754;DHT22;32500;50.620;3.400;2023-12-22T04:00:48;16.80;63.80
46754;DHT22;32500;50.620;3.400;2023-12-22T04:03:14;16.70;63.90
46754;DHT22;32500;50.620;3.400;2023-12-22T04:05:40;16.70;64.10
46754;DHT22;32500;50.620;3.400;2023-12-22T04:08:06;16.70;63.60
46754;DHT22;32500;50.620;3.400;2023-12-22T04:10:32;16.70;63.80
46754;DHT22;32500;50.620;3.400;2023-12-22T04:12:57;16.70;64.10
46754;DHT22;32500;50.620;3.400;2023-12-22T04:15:23;16.70;63.80
46754;DHT22;32500;50.620;3.400;2023-12-22T04:17:49;16.70;63.80
46754;DHT22;32500;50.620;3.400;2023-12-22T04:20:15;16.70;63.70
46754;DHT22;32500;50.620;3.400;2023-12-22T04:22:41;16.70;63.90
46754;DHT22;32500;50.620;3.400;2023-12-22T04:25:07;16.70;63.70
46754;DHT22;32500;50.620;3.400;2023-12-22T04:27:34;16.70;63.70
46754;DHT22;32500;50.620;3.400;2023-12-22T04:30:00;16.60;63.80
46754;DHT22;32500;50.620;3.400;2023-12-22T04:32:25;16.60;63.80
46754;DHT22;32500;50.620;3.400;2023-12-22T04:34:51;16.60;63.70
46754;DHT22;32500;50.620;3.400;2023-12-22T04:37:17;16.60;63.80
46754;DHT22;32500;50.620;3.400;2023-12-22T04:39:42;16.60;63.60
46754;DHT22;32500;50.620;3.400;2023-12-22T04:42:08;16.60;63.70
46754;DHT22;32500;50.620;3.400;2023-12-22T04:44:34;16.60;63.70
46754;DHT22;32500;50.620;3.400;2023-12-22T04:47:00;16.60;63.80
46754;DHT22;32500;50.620;3.400;2023-12-22T04:49:25;16.60;63.60
46754;DHT22;32500;50.620;3.400;2023-12-22T04:51:52;16.60;63.90
46754;DHT22;32500;50.620;3.400;2023-12-22T04:54:18;16.60;63.60
46754;DHT22;32500;50.620;3.400;2023-12-22T04:56:44;16.60;63.70
46754;DHT22;32500;50.620;3.400;2023-12-22T04:59:09;16.60;63.80
46754;DHT22;32500;50.620;3.400;2023-12-22T05:01:35;16.60;63.70
46754;DHT22;32500;50.620;3.400;2023-12-22T05:04:01;16.60;63.90
46754;DHT22;32500;50.620;3.400;2023-12-22T05:06:27;16.60;63.90
46754;DHT22;32500;50.620;3.400;2023-12-22T05:08:54;16.60;63.90
46754;DHT22;32500;50.620;3.400;2023-12-22T05:11:22;16.60;63.90
46754;DHT22;32500;50.620;3.400;2023-12-22T05:13:48;16.60;63.80
46754;DHT22;32500;50.620;3.400;2023-12-22T05:16:14;16.60;64.00
46754;DHT22;32500;50.620;3.400;2023-12-22T05:18:40;16.50;64.00
46754;DHT22;32500;50.620;3.400;2023-12-22T05:21:05;16.50;63.90
46754;DHT22;32500;50.620;3.400;2023-12-22T05:23:31;16.50;64.20
46754;DHT22;32500;50.620;3.400;2023-12-22T05:25:58;16.50;64.10
46754;DHT22;32500;50.620;3.400;2023-12-22T05:28:23;16.50;64.00
46754;DHT22;32500;50.620;3.400;2023-12-22T05:30:49;16.50;64.10
46754;DHT22;32500;50.620;3.400;2023-12-22T05:33:15;16.50;64.10
46754;DHT22;32500;50.620;3.400;2023-12-22T05:35:40;16.50;64.30
46754;DHT22;32500;50.620;3.400;2023-12-22T05:38:06;16.50;64.20
46754;DHT22;32500;50.620;3.400;2023-12-22T05:40:32;16.50;64.30
46754;DHT22;32500;50.620;3.400;2023-12-22T05:42:57;16.40;64.20
46754;DHT22;32500;50.620;3.400;2023-12-22T05:45:23;16.40;64.40
46754;DHT22;32500;50.620;3.400;2023-12-22T05:47:52;16.40;64.40
46754;DHT22;32500;50.620;3.400;2023-12-22T05:50:17;16.40;64.50
46754;DHT22;32500;50.620;3.400;2023-12-22T05:52:43;16.40;64.40
46754;DHT22;32500;50.620;3.400;2023-12-22T05:55:12;16.40;64.30
46754;DHT22;32500;50.620;3.400;2023-12-22T05:57:37;16.40;64.40
46754;DHT22;32500;50.620;3.400;2023-12-22T06:00:06;16.40;64.40
46754;DHT22;32500;50.620;3.400;2023-12-22T06:02:35;16.40;64.40
46754;DHT22;32500;50.620;3.400;2023-12-22T06:05:00;16.40;64.30
46754;DHT22;32500;50.620;3.400;2023-12-22T06:07:26;16.30;64.50
46754;DHT22;32500;50.620;3.400;2023-12-22T06:09:52;16.40;64.60
46754;DHT22;32500;50.620;3.400;2023-12-22T06:12:18;16.30;64.60
46754;DHT22;32500;50.620;3.400;2023-12-22T06:14:43;16.40;64.60
46754;DHT22;32500;50.620;3.400;2023-12-22T06:17:09;16.40;64.80
46754;DHT22;32500;50.620;3.400;2023-12-22T06:19:38;16.40;64.80
46754;DHT22;32500;50.620;3.400;2023-12-22T06:22:04;16.30;64.80
46754;DHT22;32500;50.620;3.400;2023-12-22T06:24:29;16.30;64.80
46754;DHT22;32500;50.620;3.400;2023-12-22T06:26:55;16.40;64.90
46754;DHT22;32500;50.620;3.400;2023-12-22T06:29:20;16.30;64.80
46754;DHT22;32500;50.620;3.400;2023-12-22T06:31:46;16.30;64.90
46754;DHT22;32500;50.620;3.400;2023-12-22T06:34:16;16.30;65.00
46754;DHT22;32500;50.620;3.400;2023-12-22T06:36:42;16.30;65.00
46754;DHT22;32500;50.620;3.400;2023-12-22T06:39:08;16.30;65.00
46754;DHT22;32500;50.620;3.400;2023-12-22T06:41:34;16.30;65.10
46754;DHT22;32500;50.620;3.400;2023-12-22T06:44:00;16.30;65.20
46754;DHT22;32500;50.620;3.400;2023-12-22T06:46:26;16.40;65.40
46754;DHT22;32500;50.620;3.400;2023-12-22T06:48:53;16.30;65.40
46754;DHT22;32500;50.620;3.400;2023-12-22T06:51:26;16.40;65.60
46754;DHT22;32500;50.620;3.400;2023-12-22T06:53:54;16.30;65.60
46754;DHT22;32500;50.620;3.400;2023-12-22T06:56:27;16.30;65.60
46754;DHT22;32500;50.620;3.400;2023-12-22T06:58:54;16.30;65.60
46754;DHT22;32500;50.620;3.400;2023-12-22T07:01:34;16.30;65.90
46754;DHT22;32500;50.620;3.400;2023-12-22T07:04:01;16.30;66.00
46754;DHT22;32500;50.620;3.400;2023-12-22T07:06:29;16.30;66.10
46754;DHT22;32500;50.620;3.400;2023-12-22T07:11:37;16.30;66.20
46754;DHT22;32500;50.620;3.400;2023-12-22T07:14:02;16.30;66.40
46754;DHT22;32500;50.620;3.400;2023-12-22T07:16:28;16.30;66.50
46754;DHT22;32500;50.620;3.400;2023-12-22T07:18:54;16.30;66.60
46754;DHT22;32500;50.620;3.400;2023-12-22T07:21:19;16.30;66.50
46754;DHT22;32500;50.620;3.400;2023-12-22T07:23:45;16.30;66.60
46754;DHT22;32500;50.620;3.400;2023-12-22T07:26:11;16.30;66.60
46754;DHT22;32500;50.620;3.400;2023-12-22T07:28:37;16.30;66.90
46754;DHT22;32500;50.620;3.400;2023-12-22T07:31:03;16.40;67.10
46754;DHT22;32500;50.620;3.400;2023-12-22T07:33:29;16.30;67.00
46754;DHT22;32500;50.620;3.400;2023-12-22T07:35:54;16.30;67.10
46754;DHT22;32500;50.620;3.400;2023-12-22T07:38:20;16.30;67.10
46754;DHT22;32500;50.620;3.400;2023-12-22T07:40:46;16.30;67.00
46754;DHT22;32500;50.620;3.400;2023-12-22T07:43:12;16.30;67.10
46754;DHT22;32500;50.620;3.400;2023-12-22T07:45:38;16.30;67.30
46754;DHT22;32500;50.620;3.400;2023-12-22T07:48:04;16.30;67.20
46754;DHT22;32500;50.620;3.400;2023-12-22T07:50:30;16.30;67.00
46754;DHT22;32500;50.620;3.400;2023-12-22T07:52:55;16.30;67.10
46754;DHT22;32500;50.620;3.400;2023-12-22T07:55:21;16.30;67.10
46754;DHT22;32500;50.620;3.400;2023-12-22T07:57:46;16.40;67.60
46754;DHT22;32500;50.620;3.400;2023-12-22T08:00:13;16.50;67.30
46754;DHT22;32500;50.620;3.400;2023-12-22T08:02:38;16.50;67.10
46754;DHT22;32500;50.620;3.400;2023-12-22T08:05:04;16.60;67.00
46754;DHT22;32500;50.620;3.400;2023-12-22T08:07:30;16.60;66.90
46754;DHT22;32500;50.620;3.400;2023-12-22T08:09:56;16.70;67.80
46754;DHT22;32500;50.620;3.400;2023-12-22T08:12:22;16.60;66.90
46754;DHT22;32500;50.620;3.400;2023-12-22T08:14:48;16.70;66.90
46754;DHT22;32500;50.620;3.400;2023-12-22T08:17:14;16.70;66.90
46754;DHT22;32500;50.620;3.400;2023-12-22T08:19:39;16.70;67.00
46754;DHT22;32500;50.620;3.400;2023-12-22T08:22:09;16.70;67.00
46754;DHT22;32500;50.620;3.400;2023-12-22T08:24:36;16.60;66.90
46754;DHT22;32500;50.620;3.400;2023-12-22T08:27:01;16.70;67.10
46754;DHT22;32500;50.620;3.400;2023-12-22T08:29:27;16.60;67.10
46754;DHT22;32500;50.620;3.400;2023-12-22T08:31:52;16.70;67.30
46754;DHT22;32500;50.620;3.400;2023-12-22T08:34:19;16.70;68.20
46754;DHT22;32500;50.620;3.400;2023-12-22T08:36:45;16.70;67.80
46754;DHT22;32500;50.620;3.400;2023-12-22T08:39:10;16.70;68.00
46754;DHT22;32500;50.620;3.400;2023-12-22T08:41:36;16.70;68.20
46754;DHT22;32500;50.620;3.400;2023-12-22T08:44:06;16.70;69.10
46754;DHT22;32500;50.620;3.400;2023-12-22T08:46:32;16.70;69.60
46754;DHT22;32500;50.620;3.400;2023-12-22T08:48:58;16.70;69.80
46754;DHT22;32500;50.620;3.400;2023-12-22T08:51:25;16.70;69.20
46754;DHT22;32500;50.620;3.400;2023-12-22T08:53:52;16.70;70.30
46754;DHT22;32500;50.620;3.400;2023-12-22T08:56:23;16.70;69.40
46754;DHT22;32500;50.620;3.400;2023-12-22T09:01:17;16.70;69.30
46754;DHT22;32500;50.620;3.400;2023-12-22T09:03:43;16.70;69.80
46754;DHT22;32500;50.620;3.400;2023-12-22T09:06:14;16.70;69.50
46754;DHT22;32500;50.620;3.400;2023-12-22T09:08:41;16.70;69.80
46754;DHT22;32500;50.620;3.400;2023-12-22T09:11:06;16.70;69.40
46754;DHT22;32500;50.620;3.400;2023-12-22T09:13:33;16.70;70.30
46754;DHT22;32500;50.620;3.400;2023-12-22T09:15:58;16.70;70.30
46754;DHT22;32500;50.620;3.400;2023-12-22T09:18:24;16.70;72.40
46754;DHT22;32500;50.620;3.400;2023-12-22T09:20:49;16.70;73.10
46754;DHT22;32500;50.620;3.400;2023-12-22T09:23:15;16.70;74.30
46754;DHT22;32500;50.620;3.400;2023-12-22T09:25:41;16.70;73.80
46754;DHT22;32500;50.620;3.400;2023-12-22T09:28:06;16.70;75.30
46754;DHT22;32500;50.620;3.400;2023-12-22T09:30:32;16.80;75.70
46754;DHT22;32500;50.620;3.400;2023-12-22T09:32:58;16.90;76.50
46754;DHT22;32500;50.620;3.400;2023-12-22T09:35:23;16.90;76.30
46754;DHT22;32500;50.620;3.400;2023-12-22T09:37:51;16.90;75.60
46754;DHT22;32500;50.620;3.400;2023-12-22T09:40:16;16.90;75.70
46754;DHT22;32500;50.620;3.400;2023-12-22T09:42:43;16.90;75.10
46754;DHT22;32500;50.620;3.400;2023-12-22T09:45:16;16.90;75.50
46754;DHT22;32500;50.620;3.400;2023-12-22T09:47:44;16.90;76.00
46754;DHT22;32500;50.620;3.400;2023-12-22T09:50:10;16.90;75.40
46754;DHT22;32500;50.620;3.400;2023-12-22T09:52:36;16.90;75.60
46754;DHT22;32500;50.620;3.400;2023-12-22T09:55:03;16.90;76.50
46754;DHT22;32500;50.620;3.400;2023-12-22T09:57:30;17.00;75.70
46754;DHT22;32500;50.620;3.400;2023-12-22T09:59:57;17.10;75.00
46754;DHT22;32500;50.620;3.400;2023-12-22T10:02:25;17.00;74.60
46754;DHT22;32500;50.620;3.400;2023-12-22T10:04:52;16.90;74.40
46754;DHT22;32500;50.620;3.400;2023-12-22T10:07:19;16.90;75.10
46754;DHT22;32500;50.620;3.400;2023-12-22T10:09:46;16.90;75.30
46754;DHT22;32500;50.620;3.400;2023-12-22T10:12:13;16.90;74.60
46754;DHT22;32500;50.620;3.400;2023-12-22T10:14:40;16.90;74.40
46754;DHT22;32500;50.620;3.400;2023-12-22T10:17:07;17.00;74.60
46754;DHT22;32500;50.620;3.400;2023-12-22T10:19:32;17.00;73.60
46754;DHT22;32500;50.620;3.400;2023-12-22T10:21:58;17.00;73.70
46754;DHT22;32500;50.620;3.400;2023-12-22T10:24:43;17.00;73.80
46754;DHT22;32500;50.620;3.400;2023-12-22T10:27:13;17.10;73.60
46754;DHT22;32500;50.620;3.400;2023-12-22T10:29:39;17.10;73.80
46754;DHT22;32500;50.620;3.400;2023-12-22T10:32:05;17.10;74.00
46754;DHT22;32500;50.620;3.400;2023-12-22T10:34:31;17.10;73.70
46754;DHT22;32500;50.620;3.400;2023-12-22T10:36:59;17.10;73.60
46754;DHT22;32500;50.620;3.400;2023-12-22T10:39:29;17.10;73.60
46754;DHT22;32500;50.620;3.400;2023-12-22T10:41:56;17.20;73.50
46754;DHT22;32500;50.620;3.400;2023-12-22T10:44:26;17.10;73.70
46754;DHT22;32500;50.620;3.400;2023-12-22T10:46:52;17.20;73.40
46754;DHT22;32500;50.620;3.400;2023-12-22T10:49:19;17.10;73.50
46754;DHT22;32500;50.620;3.400;2023-12-22T10:51:45;17.20;73.90
46754;DHT22;32500;50.620;3.400;2023-12-22T10:54:10;17.20;74.60
46754;DHT22;32500;50.620;3.400;2023-12-22T10:56:36;17.20;73.50
46754;DHT22;32500;50.620;3.400;2023-12-22T10:59:02;17.30;74.10
46754;DHT22;32500;50.620;3.400;2023-12-22T11:01:30;17.40;73.50
46754;DHT22;32500;50.620;3.400;2023-12-22T11:04:02;17.40;73.80
46754;DHT22;32500;50.620;3.400;2023-12-22T11:06:30;17.50;73.80
46754;DHT22;32500;50.620;3.400;2023-12-22T11:08:57;17.60;73.40
46754;DHT22;32500;50.620;3.400;2023-12-22T11:11:30;17.60;73.30
46754;DHT22;32500;50.620;3.400;2023-12-22T11:13:57;17.70;73.10
46754;DHT22;32500;50.620;3.400;2023-12-22T11:16:24;17.70;72.70
46754;DHT22;32500;50.620;3.400;2023-12-22T11:18:53;17.70;72.20
46754;DHT22;32500;50.620;3.400;2023-12-22T11:21:22;17.60;72.10
46754;DHT22;32500;50.620;3.400;2023-12-22T11:23:49;17.60;71.60
46754;DHT22;32500;50.620;3.400;2023-12-22T11:26:17;17.60;71.10
46754;DHT22;32500;50.620;3.400;2023-12-22T11:28:45;17.70;71.50
46754;DHT22;32500;50.620;3.400;2023-12-22T11:31:12;17.90;71.40
46754;DHT22;32500;50.620;3.400;2023-12-22T11:33:40;18.00;71.50
46754;DHT22;32500;50.620;3.400;2023-12-22T11:36:08;18.00;72.10
46754;DHT22;32500;50.620;3.400;2023-12-22T11:38:35;18.00;71.50
46754;DHT22;32500;50.620;3.400;2023-12-22T11:41:01;18.00;70.70
46754;DHT22;32500;50.620;3.400;2023-12-22T11:43:28;18.00;70.90
46754;DHT22;32500;50.620;3.400;2023-12-22T11:45:55;18.10;70.70
46754;DHT22;32500;50.620;3.400;2023-12-22T11:48:22;18.10;71.30
46754;DHT22;32500;50.620;3.400;2023-12-22T11:50:48;18.10;71.10
46754;DHT22;32500;50.620;3.400;2023-12-22T11:53:24;18.10;70.20
46754;DHT22;32500;50.620;3.400;2023-12-22T12:01:17;18.30;70.80
46754;DHT22;32500;50.620;3.400;2023-12-22T12:11:22;18.60;70.50
46754;DHT22;32500;50.620;3.400;2023-12-22T12:13:50;18.70;71.20
46754;DHT22;32500;50.620;3.400;2023-12-22T12:16:21;18.70;70.80
46754;DHT22;32500;50.620;3.400;2023-12-22T12:18:47;18.80;71.50
46754;DHT22;32500;50.620;3.400;2023-12-22T12:21:13;18.90;71.50
46754;DHT22;32500;50.620;3.400;2023-12-22T12:23:41;18.90;70.20
46754;DHT22;32500;50.620;3.400;2023-12-22T12:26:07;18.90;70.20
46754;DHT22;32500;50.620;3.400;2023-12-22T12:28:36;18.90;69.80
46754;DHT22;32500;50.620;3.400;2023-12-22T12:31:07;18.90;69.90
46754;DHT22;32500;50.620;3.400;2023-12-22T12:33:35;18.90;69.90
46754;DHT22;32500;50.620;3.400;2023-12-22T12:36:01;18.90;70.30
46754;DHT22;32500;50.620;3.400;2023-12-22T12:39:09;18.90;70.90
46754;DHT22;32500;50.620;3.400;2023-12-22T12:41:41;18.90;70.20
46754;DHT22;32500;50.620;3.400;2023-12-22T12:44:09;18.90;70.10
46754;DHT22;32500;50.620;3.400;2023-12-22T12:46:39;19.00;70.50
46754;DHT22;32500;50.620;3.400;2023-12-22T12:49:05;19.00;70.20
46754;DHT22;32500;50.620;3.400;2023-12-22T12:51:38;19.00;70.20
46754;DHT22;32500;50.620;3.400;2023-12-22T12:54:08;19.00;70.40
46754;DHT22;32500;50.620;3.400;2023-12-22T12:56:41;18.90;71.70
46754;DHT22;32500;50.620;3.400;2023-12-22T12:59:11;18.90;71.30
46754;DHT22;32500;50.620;3.400;2023-12-22T13:01:44;18.90;70.70
46754;DHT22;32500;50.620;3.400;2023-12-22T13:04:10;18.90;71.30
46754;DHT22;32500;50.620;3.400;2023-12-22T13:06:46;18.90;70.20
46754;DHT22;32500;50.620;3.400;2023-12-22T13:09:12;18.90;70.60
46754;DHT22;32500;50.620;3.400;2023-12-22T13:11:41;18.90;70.00
46754;DHT22;32500;50.620;3.400;2023-12-22T13:14:12;18.90;69.90
46754;DHT22;32500;50.620;3.400;2023-12-22T13:16:47;18.90;69.60
46754;DHT22;32500;50.620;3.400;2023-12-22T13:19:13;18.80;69.80
46754;DHT22;32500;50.620;3.400;2023-12-22T13:21:38;18.80;69.50
46754;DHT22;32500;50.620;3.400;2023-12-22T13:24:16;18.80;69.20
46754;DHT22;32500;50.620;3.400;2023-12-22T13:26:43;18.90;68.70
46754;DHT22;32500;50.620;3.400;2023-12-22T13:29:11;19.00;68.80
46754;DHT22;32500;50.620;3.400;2023-12-22T13:31:41;19.00;67.30
46754;DHT22;32500;50.620;3.400;2023-12-22T13:34:12;19.10;67.50
46754;DHT22;32500;50.620;3.400;2023-12-22T13:36:41;19.10;68.10
46754;DHT22;32500;50.620;3.400;2023-12-22T13:39:09;19.10;67.80
46754;DHT22;32500;50.620;3.400;2023-12-22T13:41:44;19.20;67.50
46754;DHT22;32500;50.620;3.400;2023-12-22T13:44:14;19.20;67.40
46754;DHT22;32500;50.620;3.400;2023-12-22T13:46:40;19.30;67.10
46754;DHT22;32500;50.620;3.400;2023-12-22T13:49:10;19.30;66.70
46754;DHT22;32500;50.620;3.400;2023-12-22T13:51:43;19.30;66.20
46754;DHT22;32500;50.620;3.400;2023-12-22T13:54:09;19.30;66.60
46754;DHT22;32500;50.620;3.400;2023-12-22T13:56:38;19.30;66.00
46754;DHT22;32500;50.620;3.400;2023-12-22T13:59:09;19.30;65.80
46754;DHT22;32500;50.620;3.400;2023-12-22T14:01:35;19.30;66.10
46754;DHT22;32500;50.620;3.400;2023-12-22T14:04:01;19.40;65.70
46754;DHT22;32500;50.620;3.400;2023-12-22T14:06:27;19.30;65.80
46754;DHT22;32500;50.620;3.400;2023-12-22T14:08:56;19.40;65.60
46754;DHT22;32500;50.620;3.400;2023-12-22T14:11:22;19.30;65.40
46754;DHT22;32500;50.620;3.400;2023-12-22T14:13:48;19.30;65.20
46754;DHT22;32500;50.620;3.400;2023-12-22T14:16:14;19.30;65.90
46754;DHT22;32500;50.620;3.400;2023-12-22T14:18:43;19.30;66.00
46754;DHT22;32500;50.620;3.400;2023-12-22T14:21:09;19.30;65.50
46754;DHT22;32500;50.620;3.400;2023-12-22T14:23:34;19.20;65.70
46754;DHT22;32500;50.620;3.400;2023-12-22T14:26:00;19.20;66.10
46754;DHT22;32500;50.620;3.400;2023-12-22T14:28:26;19.20;66.30
46754;DHT22;32500;50.620;3.400;2023-12-22T14:30:53;19.20;66.20
46754;DHT22;32500;50.620;3.400;2023-12-22T14:33:18;19.10;66.20
46754;DHT22;32500;50.620;3.400;2023-12-22T14:35:44;19.20;66.40
46754;DHT22;32500;50.620;3.400;2023-12-22T14:38:10;19.10;66.30
46754;DHT22;32500;50.620;3.400;2023-12-22T14:40:35;19.10;65.90
46754;DHT22;32500;50.620;3.400;2023-12-22T14:43:01;19.20;66.00
46754;DHT22;32500;50.620;3.400;2023-12-22T14:45:28;19.10;65.80
46754;DHT22;32500;50.620;3.400;2023-12-22T14:47:53;19.20;66.10
46754;DHT22;32500;50.620;3.400;2023-12-22T14:50:19;19.10;66.30
46754;DHT22;32500;50.620;3.400;2023-12-22T14:52:45;19.10;66.40
46754;DHT22;32500;50.620;3.400;2023-12-22T14:55:11;19.10;66.30
46754;DHT22;32500;50.620;3.400;2023-12-22T14:57:36;19.00;66.20
46754;DHT22;32500;50.620;3.400;2023-12-22T15:00:03;19.10;66.20
46754;DHT22;32500;50.620;3.400;2023-12-22T15:02:29;19.10;65.80
46754;DHT22;32500;50.620;3.400;2023-12-22T15:04:55;19.10;66.30
46754;DHT22;32500;50.620;3.400;2023-12-22T15:07:21;19.10;66.00
46754;DHT22;32500;50.620;3.400;2023-12-22T15:09:46;19.10;66.20
46754;DHT22;32500;50.620;3.400;2023-12-22T15:12:16;19.10;66.10
46754;DHT22;32500;50.620;3.400;2023-12-22T15:14:46;19.10;66.40
46754;DHT22;32500;50.620;3.400;2023-12-22T15:17:12;19.30;66.10
46754;DHT22;32500;50.620;3.400;2023-12-22T15:19:42;19.20;65.60
46754;DHT22;32500;50.620;3.400;2023-12-22T15:22:09;19.20;65.90
46754;DHT22;32500;50.620;3.400;2023-12-22T15:24:42;19.10;65.90
46754;DHT22;32500;50.620;3.400;2023-12-22T15:27:09;19.10;65.70
46754;DHT22;32500;50.620;3.400;2023-12-22T15:29:35;19.10;65.80
46754;DHT22;32500;50.620;3.400;2023-12-22T15:32:00;19.10;66.20
46754;DHT22;32500;50.620;3.400;2023-12-22T15:34:27;19.10;65.80
46754;DHT22;32500;50.620;3.400;2023-12-22T15:36:52;19.10;65.70
46754;DHT22;32500;50.620;3.400;2023-12-22T15:39:18;19.20;66.00
46754;DHT22;32500;50.620;3.400;2023-12-22T15:41:47;19.30;65.50
46754;DHT22;32500;50.620;3.400;2023-12-22T15:44:13;19.40;66.00
46754;DHT22;32500;50.620;3.400;2023-12-22T15:46:39;19.50;65.60
46754;DHT22;32500;50.620;3.400;2023-12-22T15:49:05;19.60;65.10